Terminal Aerodrome Forecast
Issued by NWS Kansas City/Pleasant Hill, MO

Home | Current Version | Previous Version | Text Only | Print | Product List | Glossary On
Versions: 1 2 3 4 5 6 7 8 9 10 11 12 13 14 15 16 17 18 19 20 21 22 23 24
237
FTUS43 KEAX 271120
TAFMCI
TAF
KMCI 271120Z 2712/2812 01009KT P6SM VCSH OVC010
      TEMPO 2712/2715 5SM -RA OVC008
     FM271600 02008KT P6SM OVC015
     FM280000 06005KT P6SM OVC035=

USA.gov is the U.S. government's official web portal to all federal, state and local government web resources and services.